Observations for STORNOWAY, United Kingdom (EGPO)

EGPO 191950Z AUTO 02018G28KT 9999 SCT020/// BKN024/// 10/08 Q1011   
EGPO 191920Z AUTO 04018G30KT 7000 -RA FEW021/// SCT031/// BKN042/// 10/07 Q1010 
EGPO 191850Z AUTO 05016KT 9999 FEW014/// SCT020/// BKN027/// 09/08 Q1010 RERA   
EGPO 191820Z AUTO 04015KT 9999 SCT013/// SCT021/// BKN032/// 10/08 Q1009 RERA   
EGPO 191750Z AUTO 01018KT 5000 -RA FEW009/// SCT025/// BKN044/// 09/08 Q1009 RERA   
EGPO 191720Z AUTO 01020KT 9999 FEW022/// SCT034/// 10/08 Q1008  
EGPO 191650Z AUTO 36017KT 9999 FEW012/// SCT024/// BKN033/// 09/08 Q1008
EGPO 191620Z AUTO 36019G31KT 7000 -RA SCT007/// BKN013/// BKN021/// 09/08 Q1008 RERA
EGPO 191550Z AUTO 35016G27KT 9999 SCT013/// SCT021/// BKN029/// 09/08 Q1008 
EGPO 191520Z AUTO 36019KT 9999 FEW018/// SCT027/// BKN045/// 10/07 Q1008
EGPO 191450Z AUTO 01023G33KT 9999 SCT031/// SCT038/// 10/06 Q1008   
EGPO 191420Z 01022G32KT 9999 VCSH FEW011 SCT020 10/07 Q1007 
EGPO 191350Z 02025KT 9999 VCSH FEW009 SCT020 10/07 Q1007
EGPO 191320Z 02025G35KT 9999 VCSH FEW009 SCT020 10/07 Q1007 
EGPO 191250Z 02026KT 9999 VCSH FEW009 FEW014CB SCT020 10/07 Q1007   
EGPO 191220Z 03025G35KT 9999 -SHRA FEW009 FEW014CB SCT019 10/08 Q1006   
EGPO 191150Z 03024G35KT 9999 -SHRA FEW009 SCT014CB SCT019 10/09 Q1006 RESHRA
EGPO 191120Z 02023G34KT 9999 -SHRA FEW009 FEW014CB SCT019 10/08 Q1006   
EGPO 191050Z 01019KT 9999 -SHRA FEW012 FEW015CB SCT019 10/09 Q1006  
EGPO 191020Z 01019KT 9999 -SHRA FEW012 FEW015CB SCT019 10/08 Q1005  
EGPO 190950Z 01014KT 9999 -SHRA FEW012 FEW015CB SCT019 10/08 Q1005  
EGPO 190920Z 36013KT 9999 VCSH FEW015CB SCT019 10/08 Q1005  
EGPO 190850Z 01016KT 9999 -SHRA FEW015CB SCT020 BKN025 10/08 Q1005  
EGPO 190820Z 36012KT 9999 -SHRA FEW010 SCT015CB SCT021 09/08 Q1005  
EGPO 190750Z 01014KT 9999 -SHRA FEW015CB SCT021 10/07 Q1005 
EGPO 190720Z 36012KT 330V030 9999 -SHRA FEW015CB SCT018 SCT025 10/08 Q1004  
EGPO 190650Z 01011KT 9999 VCSH FEW012 FEW015CB 09/07 Q1004  
EGPO 190620Z 01011KT 9999 VCSH FEW015CB SCT019 10/08 Q1004  
EGPO 190550Z 01014KT 9999 -SHRA FEW015CB SCT028 10/07 Q1004 
EGPO 190520Z 01015KT 9999 -SHRA FEW015CB SCT024 10/08 Q1003 
EGPO 190450Z 01011KT 9999 VCSH FEW015CB SCT032 10/07 Q1003  
EGPO 190420Z AUTO 01014KT 9999 -RA SCT022/// BKN032/// BKN041/// 11/07 Q1003
EGPO 190350Z AUTO 03015KT 9999 SCT022/// BKN040/// 11/07 Q1002  
EGPO 190320Z AUTO 03017KT 9999 FEW026/// 11/07 Q1002
EGPO 190250Z AUTO 03017KT 9999 SCT023/// 11/07 Q1002
EGPO 190220Z AUTO 03016KT 9999 BKN022/// 11/07 Q1002
EGPO 190150Z AUTO 03018KT 9999 NCD 11/07 Q1002  
EGPO 190120Z AUTO 04017KT 9999 SCT022/// 11/07 Q1002
EGPO 190050Z AUTO 04017KT 9999 SCT022/// 11/07 Q1001
EGPO 190020Z AUTO 04016KT 9999 BKN023/// 11/07 Q1001
EGPO 182350Z AUTO 04017KT 9999 FEW024/// SCT029/// 11/07 Q1001  
EGPO 182320Z AUTO 04017KT 9999 FEW023/// 11/07 Q1001
EGPO 182250Z AUTO 04017KT 9999 FEW021/// SCT025/// 11/08 Q1001  
EGPO 182220Z AUTO 04017KT 9999 SCT021/// 11/08 Q1000
EGPO 182150Z AUTO 04016KT 9999 FEW021/// SCT036/// 11/08 Q1000  
EGPO 182120Z AUTO 04017KT 9999 SCT019/// 11/08 Q1000
EGPO 182050Z 04017KT 9999 SCT018 11/08 Q0999
EGPO 182020Z 05019KT 9999 FEW012CB SCT017 12/08 Q0999   
EGPO 181950Z 04018KT 9999 FEW012CB SCT017 12/08 Q0999   
EGPO 181920Z 04018KT 9999 VCSH FEW012CB SCT017 BKN048 12/09 Q0999